sensor_id;sensor_type;location;lat;lon;timestamp;pressure;altitude;pressure_sealevel;temperature;humidity
53940;BME280;39850;43.324;21.916;2023-02-22T00:03:58;993.0;;;8.1;61.0
53940;BME280;39850;43.324;21.916;2023-02-22T00:08:37;993.0;;;8.1;61.0
53940;BME280;39850;43.324;21.916;2023-02-22T00:13:14;993.0;;;8.0;62.0
53940;BME280;39850;43.324;21.916;2023-02-22T00:17:51;993.0;;;8.0;62.0
53940;BME280;39850;43.324;21.916;2023-02-22T00:22:27;993.0;;;7.6;63.0
53940;BME280;39850;43.324;21.916;2023-02-22T00:27:04;993.0;;;7.6;63.0
53940;BME280;39850;43.324;21.916;2023-02-22T00:31:40;993.0;;;7.6;63.0
53940;BME280;39850;43.324;21.916;2023-02-22T00:36:17;993.0;;;7.1;64.0
53940;BME280;39850;43.324;21.916;2023-02-22T00:40:54;993.0;;;7.1;64.0
53940;BME280;39850;43.324;21.916;2023-02-22T01:13:22;992.0;;;6.9;66.0
53940;BME280;39850;43.324;21.916;2023-02-22T01:17:59;992.0;;;6.9;66.0
53940;BME280;39850;43.324;21.916;2023-02-22T01:22:36;992.0;;;7.1;65.0
53940;BME280;39850;43.324;21.916;2023-02-22T01:27:16;992.0;;;7.1;65.0
53940;BME280;39850;43.324;21.916;2023-02-22T01:31:56;992.0;;;7.1;65.0
53940;BME280;39850;43.324;21.916;2023-02-22T01:36:33;992.0;;;7.3;66.0
53940;BME280;39850;43.324;21.916;2023-02-22T01:41:12;992.0;;;7.3;66.0
53940;BME280;39850;43.324;21.916;2023-02-22T01:46:01;992.0;;;7.3;65.0
53940;BME280;39850;43.324;21.916;2023-02-22T01:50:56;992.0;;;7.3;65.0
53940;BME280;39850;43.324;21.916;2023-02-22T01:55:48;992.0;;;7.3;66.0
53940;BME280;39850;43.324;21.916;2023-02-22T02:00:30;992.0;;;7.3;66.0
53940;BME280;39850;43.324;21.916;2023-02-22T02:38:11;992.0;;;6.3;65.0
53940;BME280;39850;43.324;21.916;2023-02-22T02:43:28;992.0;;;6.2;66.0
53940;BME280;39850;43.324;21.916;2023-02-22T02:48:25;992.0;;;6.2;66.0
53940;BME280;39850;43.324;21.916;2023-02-22T02:53:18;992.0;;;6.3;66.0
53940;BME280;39850;43.324;21.916;2023-02-22T02:57:56;992.0;;;6.3;66.0
53940;BME280;39850;43.324;21.916;2023-02-22T03:03:43;992.0;;;6.3;67.0
53940;BME280;39850;43.324;21.916;2023-02-22T03:08:53;992.0;;;6.3;67.0
53940;BME280;39850;43.324;21.916;2023-02-22T03:14:10;993.0;;;6.4;68.0
53940;BME280;39850;43.324;21.916;2023-02-22T03:19:23;993.0;;;6.4;68.0
53940;BME280;39850;43.324;21.916;2023-02-22T03:53:24;993.0;;;5.4;69.0
53940;BME280;39850;43.324;21.916;2023-02-22T03:58:14;993.0;;;5.4;69.0
53940;BME280;39850;43.324;21.916;2023-02-22T04:02:51;993.0;;;5.4;69.0
53940;BME280;39850;43.324;21.916;2023-02-22T04:07:28;993.0;;;5.4;70.0
53940;BME280;39850;43.324;21.916;2023-02-22T04:12:07;993.0;;;5.4;70.0
53940;BME280;39850;43.324;21.916;2023-02-22T04:16:44;993.0;;;5.5;71.0
53940;BME280;39850;43.324;21.916;2023-02-22T04:21:22;993.0;;;5.5;71.0
53940;BME280;39850;43.324;21.916;2023-02-22T04:25:59;993.0;;;5.5;71.0
53940;BME280;39850;43.324;21.916;2023-02-22T04:30:36;993.0;;;5.5;71.0
53940;BME280;39850;43.324;21.916;2023-02-22T04:35:13;993.0;;;5.5;71.0
53940;BME280;39850;43.324;21.916;2023-02-22T04:39:50;993.0;;;5.5;71.0
53940;BME280;39850;43.324;21.916;2023-02-22T05:16:43;993.0;;;4.4;72.0
53940;BME280;39850;43.324;21.916;2023-02-22T05:21:21;993.0;;;4.4;72.0
53940;BME280;39850;43.324;21.916;2023-02-22T05:25:58;993.0;;;4.4;72.0
53940;BME280;39850;43.324;21.916;2023-02-22T05:30:39;993.0;;;4.4;72.0
53940;BME280;39850;43.324;21.916;2023-02-22T05:35:18;993.0;;;4.4;72.0
53940;BME280;39850;43.324;21.916;2023-02-22T05:39:54;993.0;;;4.4;72.0
53940;BME280;39850;43.324;21.916;2023-02-22T05:44:31;993.0;;;4.4;71.0
53940;BME280;39850;43.324;21.916;2023-02-22T05:49:07;993.0;;;4.4;71.0
53940;BME280;39850;43.324;21.916;2023-02-22T05:53:44;993.0;;;4.4;71.0
53940;BME280;39850;43.324;21.916;2023-02-22T05:58:21;993.0;;;4.4;71.0
53940;BME280;39850;43.324;21.916;2023-02-22T06:03:08;993.0;;;4.4;71.0
53940;BME280;39850;43.324;21.916;2023-02-22T06:35:27;994.0;;;5.5;71.0
53940;BME280;39850;43.324;21.916;2023-02-22T06:40:06;994.0;;;5.5;71.0
53940;BME280;39850;43.324;21.916;2023-02-22T06:44:43;994.0;;;5.4;71.0
53940;BME280;39850;43.324;21.916;2023-02-22T06:49:20;994.0;;;5.4;71.0
53940;BME280;39850;43.324;21.916;2023-02-22T06:53:57;994.0;;;5.4;71.0
53940;BME280;39850;43.324;21.916;2023-02-22T06:58:33;994.0;;;5.4;71.0
53940;BME280;39850;43.324;21.916;2023-02-22T07:03:11;994.0;;;5.4;71.0
53940;BME280;39850;43.324;21.916;2023-02-22T07:08:02;994.0;;;5.4;71.0
53940;BME280;39850;43.324;21.916;2023-02-22T07:12:38;994.0;;;5.4;71.0
53940;BME280;39850;43.324;21.916;2023-02-22T07:17:15;994.0;;;5.4;70.0
53940;BME280;39850;43.324;21.916;2023-02-22T07:21:52;994.0;;;5.4;70.0
53940;BME280;39850;43.324;21.916;2023-02-22T08:08:14;994.0;;;12.2;52.0
53940;BME280;39850;43.324;21.916;2023-02-22T08:12:55;994.0;;;12.2;52.0
53940;BME280;39850;43.324;21.916;2023-02-22T08:17:32;994.0;;;12.0;51.0
53940;BME280;39850;43.324;21.916;2023-02-22T08:22:08;994.0;;;12.0;51.0
53940;BME280;39850;43.324;21.916;2023-02-22T08:26:46;994.0;;;12.0;51.0
53940;BME280;39850;43.324;21.916;2023-02-22T08:31:23;994.0;;;12.0;51.0
53940;BME280;39850;43.324;21.916;2023-02-22T08:36:00;994.0;;;11.9;51.0
53940;BME280;39850;43.324;21.916;2023-02-22T08:40:37;994.0;;;11.9;51.0
53940;BME280;39850;43.324;21.916;2023-02-22T09:17:32;993.0;;;14.6;46.0
53940;BME280;39850;43.324;21.916;2023-02-22T09:22:09;993.0;;;14.6;46.0
53940;BME280;39850;43.324;21.916;2023-02-22T09:26:50;993.0;;;14.8;46.0
53940;BME280;39850;43.324;21.916;2023-02-22T09:31:26;993.0;;;14.8;46.0
53940;BME280;39850;43.324;21.916;2023-02-22T09:36:07;993.0;;;15.0;46.0
53940;BME280;39850;43.324;21.916;2023-02-22T09:41:11;993.0;;;15.0;46.0
53940;BME280;39850;43.324;21.916;2023-02-22T09:46:36;993.0;;;15.2;45.0
53940;BME280;39850;43.324;21.916;2023-02-22T09:51:24;993.0;;;15.2;45.0
53940;BME280;39850;43.324;21.916;2023-02-22T09:56:19;993.0;;;15.5;44.0
53940;BME280;39850;43.324;21.916;2023-02-22T10:01:30;993.0;;;15.5;44.0
53940;BME280;39850;43.324;21.916;2023-02-22T10:37:35;992.0;;;16.3;44.0
53940;BME280;39850;43.324;21.916;2023-02-22T10:42:11;992.0;;;16.3;44.0
53940;BME280;39850;43.324;21.916;2023-02-22T10:46:52;992.0;;;16.4;44.0
53940;BME280;39850;43.324;21.916;2023-02-22T10:51:29;992.0;;;16.4;44.0
53940;BME280;39850;43.324;21.916;2023-02-22T10:56:21;992.0;;;16.4;44.0
53940;BME280;39850;43.324;21.916;2023-02-22T11:00:59;992.0;;;16.4;44.0
53940;BME280;39850;43.324;21.916;2023-02-22T11:05:40;992.0;;;16.8;43.0
53940;BME280;39850;43.324;21.916;2023-02-22T11:10:31;992.0;;;16.8;43.0
53940;BME280;39850;43.324;21.916;2023-02-22T11:15:39;992.0;;;17.3;42.0
53940;BME280;39850;43.324;21.916;2023-02-22T11:20:29;992.0;;;17.3;42.0
53940;BME280;39850;43.324;21.916;2023-02-22T12:00:44;991.0;;;17.3;42.0
53940;BME280;39850;43.324;21.916;2023-02-22T12:06:24;991.0;;;17.2;43.0
53940;BME280;39850;43.324;21.916;2023-02-22T12:11:52;991.0;;;17.2;43.0
53940;BME280;39850;43.324;21.916;2023-02-22T12:17:48;991.0;;;17.2;43.0
53940;BME280;39850;43.324;21.916;2023-02-22T12:23:05;991.0;;;17.2;43.0
53940;BME280;39850;43.324;21.916;2023-02-22T12:28:19;991.0;;;16.8;43.0
53940;BME280;39850;43.324;21.916;2023-02-22T12:33:30;991.0;;;16.8;43.0
53940;BME280;39850;43.324;21.916;2023-02-22T12:38:48;991.0;;;16.5;43.0
53940;BME280;39850;43.324;21.916;2023-02-22T12:43:59;991.0;;;16.5;43.0
53940;BME280;39850;43.324;21.916;2023-02-22T13:20:17;990.0;;;17.3;41.0
53940;BME280;39850;43.324;21.916;2023-02-22T13:25:25;990.0;;;17.0;42.0
53940;BME280;39850;43.324;21.916;2023-02-22T13:30:38;990.0;;;17.0;42.0
53940;BME280;39850;43.324;21.916;2023-02-22T13:36:19;990.0;;;16.7;42.0
53940;BME280;39850;43.324;21.916;2023-02-22T13:42:03;990.0;;;16.7;42.0
53940;BME280;39850;43.324;21.916;2023-02-22T13:48:21;990.0;;;16.4;43.0
53940;BME280;39850;43.324;21.916;2023-02-22T13:53:23;990.0;;;16.4;43.0
53940;BME280;39850;43.324;21.916;2023-02-22T13:58:12;990.0;;;16.1;44.0
53940;BME280;39850;43.324;21.916;2023-02-22T14:03:30;990.0;;;16.1;44.0
53940;BME280;39850;43.324;21.916;2023-02-22T14:37:26;990.0;;;14.6;46.0
53940;BME280;39850;43.324;21.916;2023-02-22T14:42:32;990.0;;;14.6;46.0
53940;BME280;39850;43.324;21.916;2023-02-22T14:48:00;990.0;;;14.5;46.0
53940;BME280;39850;43.324;21.916;2023-02-22T14:53:06;990.0;;;14.5;46.0
53940;BME280;39850;43.324;21.916;2023-02-22T14:58:23;990.0;;;14.6;47.0
53940;BME280;39850;43.324;21.916;2023-02-22T15:03:34;990.0;;;14.6;47.0
53940;BME280;39850;43.324;21.916;2023-02-22T15:08:19;990.0;;;14.5;48.0
53940;BME280;39850;43.324;21.916;2023-02-22T15:13:17;990.0;;;14.5;48.0
53940;BME280;39850;43.324;21.916;2023-02-22T15:17:58;990.0;;;14.6;48.0
53940;BME280;39850;43.324;21.916;2023-02-22T15:22:37;990.0;;;14.6;48.0
53940;BME280;39850;43.324;21.916;2023-02-22T15:56:08;990.0;;;15.5;47.0
53940;BME280;39850;43.324;21.916;2023-02-22T16:01:06;990.0;;;15.5;47.0
53940;BME280;39850;43.324;21.916;2023-02-22T16:05:55;990.0;;;15.5;48.0
53940;BME280;39850;43.324;21.916;2023-02-22T16:10:32;990.0;;;15.5;48.0
53940;BME280;39850;43.324;21.916;2023-02-22T16:15:18;990.0;;;15.5;48.0
53940;BME280;39850;43.324;21.916;2023-02-22T16:20:00;990.0;;;15.5;48.0
53940;BME280;39850;43.324;21.916;2023-02-22T16:24:38;990.0;;;15.5;48.0
53940;BME280;39850;43.324;21.916;2023-02-22T16:29:26;990.0;;;15.4;48.0
53940;BME280;39850;43.324;21.916;2023-02-22T16:34:08;990.0;;;15.4;48.0
53940;BME280;39850;43.324;21.916;2023-02-22T16:38:46;990.0;;;15.2;48.0
53940;BME280;39850;43.324;21.916;2023-02-22T16:43:31;990.0;;;15.2;48.0
53940;BME280;39850;43.324;21.916;2023-02-22T17:16:14;990.0;;;14.3;50.0
53940;BME280;39850;43.324;21.916;2023-02-22T17:20:54;990.0;;;14.3;50.0
53940;BME280;39850;43.324;21.916;2023-02-22T17:25:43;990.0;;;14.3;50.0
53940;BME280;39850;43.324;21.916;2023-02-22T17:30:21;990.0;;;14.4;50.0
53940;BME280;39850;43.324;21.916;2023-02-22T17:34:58;990.0;;;14.4;50.0
53940;BME280;39850;43.324;21.916;2023-02-22T17:39:35;990.0;;;14.6;49.0
53940;BME280;39850;43.324;21.916;2023-02-22T17:44:12;990.0;;;14.6;49.0
53940;BME280;39850;43.324;21.916;2023-02-22T17:48:48;990.0;;;14.6;49.0
53940;BME280;39850;43.324;21.916;2023-02-22T17:53:25;990.0;;;14.6;49.0
53940;BME280;39850;43.324;21.916;2023-02-22T17:58:02;990.0;;;14.6;49.0
53940;BME280;39850;43.324;21.916;2023-02-22T18:02:43;990.0;;;14.6;49.0
53940;BME280;39850;43.324;21.916;2023-02-22T18:39:43;990.0;;;11.8;55.0
53940;BME280;39850;43.324;21.916;2023-02-22T18:44:20;990.0;;;11.8;55.0
53940;BME280;39850;43.324;21.916;2023-02-22T18:48:58;990.0;;;11.8;56.0
53940;BME280;39850;43.324;21.916;2023-02-22T18:53:41;990.0;;;11.8;56.0
53940;BME280;39850;43.324;21.916;2023-02-22T18:58:18;990.0;;;11.8;56.0
53940;BME280;39850;43.324;21.916;2023-02-22T19:02:55;990.0;;;11.8;56.0
53940;BME280;39850;43.324;21.916;2023-02-22T19:07:32;990.0;;;11.8;57.0
53940;BME280;39850;43.324;21.916;2023-02-22T19:12:09;990.0;;;11.8;57.0
53940;BME280;39850;43.324;21.916;2023-02-22T19:16:51;990.0;;;11.8;57.0
53940;BME280;39850;43.324;21.916;2023-02-22T19:21:32;990.0;;;11.8;57.0
53940;BME280;39850;43.324;21.916;2023-02-22T19:58:26;991.0;;;10.7;59.0
53940;BME280;39850;43.324;21.916;2023-02-22T20:03:03;991.0;;;10.7;59.0
53940;BME280;39850;43.324;21.916;2023-02-22T20:07:39;991.0;;;10.6;59.0
53940;BME280;39850;43.324;21.916;2023-02-22T20:12:16;991.0;;;10.6;59.0
53940;BME280;39850;43.324;21.916;2023-02-22T20:16:57;991.0;;;10.6;60.0
53940;BME280;39850;43.324;21.916;2023-02-22T20:21:35;991.0;;;10.6;60.0
53940;BME280;39850;43.324;21.916;2023-02-22T20:26:21;991.0;;;10.2;60.0
53940;BME280;39850;43.324;21.916;2023-02-22T20:31:08;991.0;;;10.2;60.0
53940;BME280;39850;43.324;21.916;2023-02-22T20:35:47;991.0;;;10.2;60.0
53940;BME280;39850;43.324;21.916;2023-02-22T20:40:24;991.0;;;9.8;61.0
53940;BME280;39850;43.324;21.916;2023-02-22T20:45:00;991.0;;;9.8;61.0
53940;BME280;39850;43.324;21.916;2023-02-22T21:17:31;991.0;;;8.9;64.0
53940;BME280;39850;43.324;21.916;2023-02-22T21:22:08;991.0;;;8.9;64.0
53940;BME280;39850;43.324;21.916;2023-02-22T21:26:45;991.0;;;8.9;64.0
53940;BME280;39850;43.324;21.916;2023-02-22T21:31:26;991.0;;;8.9;64.0
53940;BME280;39850;43.324;21.916;2023-02-22T21:36:11;991.0;;;8.9;64.0
53940;BME280;39850;43.324;21.916;2023-02-22T21:40:47;991.0;;;9.0;65.0
53940;BME280;39850;43.324;21.916;2023-02-22T21:45:24;991.0;;;9.0;65.0
53940;BME280;39850;43.324;21.916;2023-02-22T21:50:01;991.0;;;9.1;66.0
53940;BME280;39850;43.324;21.916;2023-02-22T21:54:38;991.0;;;9.1;66.0
53940;BME280;39850;43.324;21.916;2023-02-22T21:59:21;991.0;;;9.1;66.0
53940;BME280;39850;43.324;21.916;2023-02-22T22:04:02;991.0;;;9.1;66.0
53940;BME280;39850;43.324;21.916;2023-02-22T22:41:04;991.0;;;7.1;71.0
53940;BME280;39850;43.324;21.916;2023-02-22T22:45:41;991.0;;;7.1;71.0
53940;BME280;39850;43.324;21.916;2023-02-22T22:50:19;991.0;;;7.1;71.0
53940;BME280;39850;43.324;21.916;2023-02-22T22:54:56;991.0;;;7.1;71.0
53940;BME280;39850;43.324;21.916;2023-02-22T22:59:34;991.0;;;7.1;71.0
53940;BME280;39850;43.324;21.916;2023-02-22T23:04:17;991.0;;;7.1;71.0
53940;BME280;39850;43.324;21.916;2023-02-22T23:09:07;991.0;;;7.1;71.0
53940;BME280;39850;43.324;21.916;2023-02-22T23:13:50;991.0;;;7.1;71.0
53940;BME280;39850;43.324;21.916;2023-02-22T23:18:27;991.0;;;7.1;72.0
53940;BME280;39850;43.324;21.916;2023-02-22T23:23:05;991.0;;;7.1;72.0
